sensor_id;sensor_type;location;lat;lon;timestamp;P1;durP1;ratioP1;P2;durP2;ratioP2
41705;SDS011;27385;51.096;17.190;2022-11-15T00:00:01;78.20;;;40.20;;
41705;SDS011;27385;51.096;17.190;2022-11-15T00:02:53;80.90;;;39.70;;
41705;SDS011;27385;51.096;17.190;2022-11-15T00:05:24;84.10;;;40.40;;
41705;SDS011;27385;51.096;17.190;2022-11-15T00:07:56;85.60;;;41.40;;
41705;SDS011;27385;51.096;17.190;2022-11-15T00:10:28;85.00;;;40.60;;
41705;SDS011;27385;51.096;17.190;2022-11-15T00:12:59;81.60;;;39.60;;
41705;SDS011;27385;51.096;17.190;2022-11-15T00:15:33;87.60;;;42.30;;
41705;SDS011;27385;51.096;17.190;2022-11-15T00:18:09;78.30;;;39.20;;
41705;SDS011;27385;51.096;17.190;2022-11-15T00:20:43;76.60;;;39.20;;
41705;SDS011;27385;51.096;17.190;2022-11-15T00:23:15;86.20;;;38.70;;
41705;SDS011;27385;51.096;17.190;2022-11-15T00:25:46;81.00;;;38.70;;
41705;SDS011;27385;51.096;17.190;2022-11-15T00:28:23;83.80;;;40.10;;
41705;SDS011;27385;51.096;17.190;2022-11-15T00:30:59;82.30;;;38.60;;
41705;SDS011;27385;51.096;17.190;2022-11-15T00:33:31;80.90;;;40.10;;
41705;SDS011;27385;51.096;17.190;2022-11-15T00:36:04;85.80;;;39.70;;
41705;SDS011;27385;51.096;17.190;2022-11-15T00:38:39;76.40;;;37.10;;
41705;SDS011;27385;51.096;17.190;2022-11-15T00:41:11;82.10;;;38.90;;
41705;SDS011;27385;51.096;17.190;2022-11-15T00:43:43;79.20;;;39.40;;
41705;SDS011;27385;51.096;17.190;2022-11-15T00:46:15;88.40;;;42.60;;
41705;SDS011;27385;51.096;17.190;2022-11-15T00:48:46;85.70;;;41.90;;
41705;SDS011;27385;51.096;17.190;2022-11-15T00:51:17;84.00;;;38.50;;
41705;SDS011;27385;51.096;17.190;2022-11-15T00:57:01;86.60;;;41.40;;
41705;SDS011;27385;51.096;17.190;2022-11-15T00:59:33;84.70;;;40.20;;
41705;SDS011;27385;51.096;17.190;2022-11-15T01:02:07;84.00;;;39.80;;
41705;SDS011;27385;51.096;17.190;2022-11-15T01:04:38;79.40;;;37.00;;
41705;SDS011;27385;51.096;17.190;2022-11-15T01:07:10;82.90;;;36.30;;
41705;SDS011;27385;51.096;17.190;2022-11-15T01:09:42;79.20;;;37.40;;
41705;SDS011;27385;51.096;17.190;2022-11-15T01:12:14;77.90;;;36.80;;
41705;SDS011;27385;51.096;17.190;2022-11-15T01:14:45;81.70;;;38.00;;
41705;SDS011;27385;51.096;17.190;2022-11-15T01:17:16;79.20;;;36.90;;
41705;SDS011;27385;51.096;17.190;2022-11-15T01:19:48;78.60;;;36.20;;
41705;SDS011;27385;51.096;17.190;2022-11-15T01:22:20;85.90;;;39.50;;
41705;SDS011;27385;51.096;17.190;2022-11-15T01:24:51;82.20;;;37.50;;
41705;SDS011;27385;51.096;17.190;2022-11-15T01:27:22;78.90;;;37.30;;
41705;SDS011;27385;51.096;17.190;2022-11-15T01:29:54;76.90;;;36.70;;
41705;SDS011;27385;51.096;17.190;2022-11-15T01:32:25;75.50;;;34.90;;
41705;SDS011;27385;51.096;17.190;2022-11-15T01:34:57;82.20;;;37.70;;
41705;SDS011;27385;51.096;17.190;2022-11-15T01:37:28;80.70;;;39.50;;
41705;SDS011;27385;51.096;17.190;2022-11-15T01:39:59;82.20;;;36.80;;
41705;SDS011;27385;51.096;17.190;2022-11-15T01:42:31;78.40;;;36.50;;
41705;SDS011;27385;51.096;17.190;2022-11-15T01:45:03;78.20;;;36.60;;
41705;SDS011;27385;51.096;17.190;2022-11-15T01:47:36;78.80;;;37.10;;
41705;SDS011;27385;51.096;17.190;2022-11-15T01:50:10;80.60;;;36.30;;
41705;SDS011;27385;51.096;17.190;2022-11-15T01:52:45;84.70;;;36.80;;
41705;SDS011;27385;51.096;17.190;2022-11-15T01:55:17;77.30;;;36.10;;
41705;SDS011;27385;51.096;17.190;2022-11-15T01:57:52;81.00;;;36.80;;
41705;SDS011;27385;51.096;17.190;2022-11-15T02:00:27;87.20;;;38.60;;
41705;SDS011;27385;51.096;17.190;2022-11-15T02:03:00;81.40;;;36.80;;
41705;SDS011;27385;51.096;17.190;2022-11-15T02:05:31;76.90;;;35.50;;
41705;SDS011;27385;51.096;17.190;2022-11-15T02:08:05;70.10;;;33.50;;
41705;SDS011;27385;51.096;17.190;2022-11-15T02:10:47;84.40;;;36.70;;
41705;SDS011;27385;51.096;17.190;2022-11-15T02:13:19;78.80;;;35.80;;
41705;SDS011;27385;51.096;17.190;2022-11-15T02:15:55;76.50;;;34.40;;
41705;SDS011;27385;51.096;17.190;2022-11-15T02:21:12;74.80;;;33.50;;
41705;SDS011;27385;51.096;17.190;2022-11-15T02:24:15;82.40;;;35.90;;
41705;SDS011;27385;51.096;17.190;2022-11-15T02:30:20;75.10;;;33.40;;
41705;SDS011;27385;51.096;17.190;2022-11-15T02:33:00;76.20;;;34.20;;
41705;SDS011;27385;51.096;17.190;2022-11-15T02:35:37;70.90;;;34.40;;
41705;SDS011;27385;51.096;17.190;2022-11-15T02:38:16;65.30;;;32.50;;
41705;SDS011;27385;51.096;17.190;2022-11-15T02:40:52;73.10;;;33.40;;
41705;SDS011;27385;51.096;17.190;2022-11-15T02:43:28;71.80;;;34.40;;
41705;SDS011;27385;51.096;17.190;2022-11-15T02:46:35;67.90;;;31.40;;
41705;SDS011;27385;51.096;17.190;2022-11-15T02:49:30;71.50;;;32.00;;
41705;SDS011;27385;51.096;17.190;2022-11-15T02:52:03;76.00;;;34.20;;
41705;SDS011;27385;51.096;17.190;2022-11-15T02:54:34;77.20;;;34.90;;
41705;SDS011;27385;51.096;17.190;2022-11-15T02:57:14;74.00;;;32.40;;
41705;SDS011;27385;51.096;17.190;2022-11-15T02:59:59;79.40;;;35.30;;
41705;SDS011;27385;51.096;17.190;2022-11-15T03:05:35;71.80;;;31.70;;
41705;SDS011;27385;51.096;17.190;2022-11-15T03:08:13;66.10;;;30.10;;
41705;SDS011;27385;51.096;17.190;2022-11-15T03:10:55;69.50;;;32.20;;
41705;SDS011;27385;51.096;17.190;2022-11-15T03:13:35;65.60;;;30.50;;
41705;SDS011;27385;51.096;17.190;2022-11-15T03:16:11;71.60;;;33.20;;
41705;SDS011;27385;51.096;17.190;2022-11-15T03:18:47;75.10;;;32.60;;
41705;SDS011;27385;51.096;17.190;2022-11-15T03:21:23;66.20;;;28.70;;
41705;SDS011;27385;51.096;17.190;2022-11-15T03:23:57;67.50;;;31.40;;
41705;SDS011;27385;51.096;17.190;2022-11-15T03:26:33;70.30;;;30.60;;
41705;SDS011;27385;51.096;17.190;2022-11-15T03:29:08;68.50;;;31.80;;
41705;SDS011;27385;51.096;17.190;2022-11-15T03:31:43;64.40;;;30.40;;
41705;SDS011;27385;51.096;17.190;2022-11-15T03:34:22;71.60;;;33.60;;
41705;SDS011;27385;51.096;17.190;2022-11-15T03:36:58;67.10;;;30.70;;
41705;SDS011;27385;51.096;17.190;2022-11-15T03:39:31;75.70;;;31.60;;
41705;SDS011;27385;51.096;17.190;2022-11-15T03:42:06;63.20;;;28.50;;
41705;SDS011;27385;51.096;17.190;2022-11-15T03:44:48;79.30;;;31.80;;
41705;SDS011;27385;51.096;17.190;2022-11-15T03:47:29;61.50;;;27.20;;
41705;SDS011;27385;51.096;17.190;2022-11-15T03:50:04;66.50;;;30.10;;
41705;SDS011;27385;51.096;17.190;2022-11-15T03:52:41;69.20;;;29.00;;
41705;SDS011;27385;51.096;17.190;2022-11-15T03:55:15;63.00;;;29.20;;
41705;SDS011;27385;51.096;17.190;2022-11-15T03:57:49;63.30;;;29.20;;
41705;SDS011;27385;51.096;17.190;2022-11-15T04:00:22;59.00;;;28.40;;
41705;SDS011;27385;51.096;17.190;2022-11-15T04:02:54;65.90;;;28.50;;
41705;SDS011;27385;51.096;17.190;2022-11-15T04:05:26;61.60;;;28.60;;
41705;SDS011;27385;51.096;17.190;2022-11-15T04:07:57;66.90;;;30.70;;
41705;SDS011;27385;51.096;17.190;2022-11-15T04:10:29;60.80;;;28.40;;
41705;SDS011;27385;51.096;17.190;2022-11-15T04:13:01;68.50;;;29.60;;
41705;SDS011;27385;51.096;17.190;2022-11-15T04:15:33;70.10;;;31.30;;
41705;SDS011;27385;51.096;17.190;2022-11-15T04:18:05;63.10;;;28.50;;
41705;SDS011;27385;51.096;17.190;2022-11-15T04:20:37;58.70;;;27.70;;
41705;SDS011;27385;51.096;17.190;2022-11-15T04:23:25;63.60;;;27.70;;
41705;SDS011;27385;51.096;17.190;2022-11-15T04:26:16;69.40;;;28.90;;
41705;SDS011;27385;51.096;17.190;2022-11-15T04:28:49;66.80;;;28.90;;
41705;SDS011;27385;51.096;17.190;2022-11-15T04:31:53;70.20;;;30.20;;
41705;SDS011;27385;51.096;17.190;2022-11-15T04:34:24;69.40;;;28.80;;
41705;SDS011;27385;51.096;17.190;2022-11-15T04:36:57;69.90;;;29.30;;
41705;SDS011;27385;51.096;17.190;2022-11-15T04:39:45;72.30;;;31.20;;
41705;SDS011;27385;51.096;17.190;2022-11-15T04:42:16;64.00;;;27.70;;
41705;SDS011;27385;51.096;17.190;2022-11-15T04:44:47;69.10;;;29.00;;
41705;SDS011;27385;51.096;17.190;2022-11-15T04:47:18;57.30;;;27.90;;
41705;SDS011;27385;51.096;17.190;2022-11-15T04:49:49;66.40;;;26.80;;
41705;SDS011;27385;51.096;17.190;2022-11-15T04:52:21;66.80;;;30.00;;
41705;SDS011;27385;51.096;17.190;2022-11-15T04:54:52;63.40;;;29.40;;
41705;SDS011;27385;51.096;17.190;2022-11-15T04:57:23;66.80;;;28.40;;
41705;SDS011;27385;51.096;17.190;2022-11-15T04:59:54;65.20;;;28.50;;
41705;SDS011;27385;51.096;17.190;2022-11-15T05:02:26;66.90;;;28.30;;
41705;SDS011;27385;51.096;17.190;2022-11-15T05:05:14;65.10;;;30.90;;
41705;SDS011;27385;51.096;17.190;2022-11-15T05:07:45;64.00;;;28.30;;
41705;SDS011;27385;51.096;17.190;2022-11-15T05:10:17;65.10;;;29.50;;
41705;SDS011;27385;51.096;17.190;2022-11-15T05:12:48;63.30;;;27.70;;
41705;SDS011;27385;51.096;17.190;2022-11-15T05:15:19;64.60;;;27.30;;
41705;SDS011;27385;51.096;17.190;2022-11-15T05:17:53;66.50;;;30.30;;
41705;SDS011;27385;51.096;17.190;2022-11-15T05:20:28;79.30;;;33.50;;
41705;SDS011;27385;51.096;17.190;2022-11-15T05:22:59;72.30;;;31.80;;
41705;SDS011;27385;51.096;17.190;2022-11-15T05:25:31;73.60;;;33.30;;
41705;SDS011;27385;51.096;17.190;2022-11-15T05:28:05;69.80;;;30.10;;
41705;SDS011;27385;51.096;17.190;2022-11-15T05:30:37;69.50;;;30.60;;
41705;SDS011;27385;51.096;17.190;2022-11-15T05:33:08;74.30;;;32.70;;
41705;SDS011;27385;51.096;17.190;2022-11-15T05:35:40;76.30;;;33.00;;
41705;SDS011;27385;51.096;17.190;2022-11-15T05:38:16;75.80;;;32.60;;
41705;SDS011;27385;51.096;17.190;2022-11-15T05:40:47;73.70;;;29.50;;
41705;SDS011;27385;51.096;17.190;2022-11-15T05:43:22;69.70;;;30.30;;
41705;SDS011;27385;51.096;17.190;2022-11-15T05:45:56;68.80;;;31.10;;
41705;SDS011;27385;51.096;17.190;2022-11-15T05:48:31;68.50;;;30.40;;
41705;SDS011;27385;51.096;17.190;2022-11-15T05:51:04;76.90;;;28.60;;
41705;SDS011;27385;51.096;17.190;2022-11-15T05:53:38;73.20;;;29.00;;
41705;SDS011;27385;51.096;17.190;2022-11-15T05:56:10;63.10;;;30.10;;
41705;SDS011;27385;51.096;17.190;2022-11-15T05:58:42;69.00;;;30.90;;
41705;SDS011;27385;51.096;17.190;2022-11-15T06:01:14;74.50;;;31.30;;
41705;SDS011;27385;51.096;17.190;2022-11-15T06:03:45;74.30;;;31.20;;
41705;SDS011;27385;51.096;17.190;2022-11-15T06:06:16;79.60;;;34.40;;
41705;SDS011;27385;51.096;17.190;2022-11-15T06:08:48;73.80;;;31.80;;
41705;SDS011;27385;51.096;17.190;2022-11-15T06:11:19;76.90;;;32.60;;
41705;SDS011;27385;51.096;17.190;2022-11-15T06:13:50;89.50;;;40.20;;
41705;SDS011;27385;51.096;17.190;2022-11-15T06:16:22;90.10;;;39.10;;
41705;SDS011;27385;51.096;17.190;2022-11-15T06:18:53;96.00;;;41.50;;
41705;SDS011;27385;51.096;17.190;2022-11-15T06:21:26;96.00;;;42.80;;
41705;SDS011;27385;51.096;17.190;2022-11-15T06:23:57;108.40;;;44.50;;
41705;SDS011;27385;51.096;17.190;2022-11-15T06:26:29;92.80;;;39.70;;
41705;SDS011;27385;51.096;17.190;2022-11-15T06:29:01;94.80;;;39.40;;
41705;SDS011;27385;51.096;17.190;2022-11-15T06:31:33;93.30;;;38.90;;
41705;SDS011;27385;51.096;17.190;2022-11-15T06:34:04;94.90;;;36.50;;
41705;SDS011;27385;51.096;17.190;2022-11-15T06:36:37;93.00;;;40.70;;
41705;SDS011;27385;51.096;17.190;2022-11-15T06:39:08;93.60;;;39.60;;
41705;SDS011;27385;51.096;17.190;2022-11-15T06:41:41;89.70;;;37.70;;
41705;SDS011;27385;51.096;17.190;2022-11-15T06:44:12;94.50;;;40.90;;
41705;SDS011;27385;51.096;17.190;2022-11-15T06:46:47;91.50;;;38.80;;
41705;SDS011;27385;51.096;17.190;2022-11-15T06:49:18;86.50;;;38.70;;
41705;SDS011;27385;51.096;17.190;2022-11-15T06:51:50;109.10;;;44.30;;
41705;SDS011;27385;51.096;17.190;2022-11-15T06:54:22;97.00;;;43.60;;
41705;SDS011;27385;51.096;17.190;2022-11-15T06:56:55;136.40;;;57.10;;
41705;SDS011;27385;51.096;17.190;2022-11-15T07:02:00;132.60;;;54.10;;
41705;SDS011;27385;51.096;17.190;2022-11-15T07:04:31;117.10;;;54.20;;
41705;SDS011;27385;51.096;17.190;2022-11-15T07:07:04;119.00;;;53.10;;
41705;SDS011;27385;51.096;17.190;2022-11-15T07:09:35;122.80;;;52.60;;
41705;SDS011;27385;51.096;17.190;2022-11-15T07:12:06;82.30;;;37.90;;
41705;SDS011;27385;51.096;17.190;2022-11-15T07:14:38;73.60;;;30.80;;
41705;SDS011;27385;51.096;17.190;2022-11-15T07:17:09;66.40;;;28.50;;
41705;SDS011;27385;51.096;17.190;2022-11-15T07:19:43;67.60;;;28.70;;
41705;SDS011;27385;51.096;17.190;2022-11-15T07:22:16;76.00;;;30.60;;
41705;SDS011;27385;51.096;17.190;2022-11-15T07:24:48;75.30;;;31.80;;
41705;SDS011;27385;51.096;17.190;2022-11-15T07:27:19;74.80;;;33.10;;
41705;SDS011;27385;51.096;17.190;2022-11-15T07:29:50;75.20;;;33.10;;
41705;SDS011;27385;51.096;17.190;2022-11-15T07:32:23;77.40;;;34.80;;
41705;SDS011;27385;51.096;17.190;2022-11-15T07:34:54;69.90;;;31.00;;
41705;SDS011;27385;51.096;17.190;2022-11-15T07:37:26;73.40;;;32.60;;
41705;SDS011;27385;51.096;17.190;2022-11-15T07:39:57;68.10;;;31.60;;
41705;SDS011;27385;51.096;17.190;2022-11-15T07:42:28;66.80;;;31.70;;
41705;SDS011;27385;51.096;17.190;2022-11-15T07:45:19;80.80;;;35.00;;
41705;SDS011;27385;51.096;17.190;2022-11-15T07:47:52;88.40;;;36.20;;
41705;SDS011;27385;51.096;17.190;2022-11-15T07:50:25;80.30;;;36.70;;
41705;SDS011;27385;51.096;17.190;2022-11-15T07:52:58;82.60;;;37.30;;
41705;SDS011;27385;51.096;17.190;2022-11-15T07:55:31;85.30;;;38.90;;
41705;SDS011;27385;51.096;17.190;2022-11-15T07:58:03;73.90;;;37.20;;
41705;SDS011;27385;51.096;17.190;2022-11-15T08:00:36;84.90;;;37.20;;
41705;SDS011;27385;51.096;17.190;2022-11-15T08:03:09;81.90;;;40.00;;
41705;SDS011;27385;51.096;17.190;2022-11-15T08:05:43;84.70;;;39.60;;
41705;SDS011;27385;51.096;17.190;2022-11-15T08:08:22;91.60;;;40.00;;
41705;SDS011;27385;51.096;17.190;2022-11-15T08:11:03;85.00;;;40.30;;
41705;SDS011;27385;51.096;17.190;2022-11-15T08:13:34;84.20;;;40.60;;
41705;SDS011;27385;51.096;17.190;2022-11-15T08:16:06;98.50;;;43.70;;
41705;SDS011;27385;51.096;17.190;2022-11-15T08:18:37;95.10;;;44.40;;
41705;SDS011;27385;51.096;17.190;2022-11-15T08:21:09;86.40;;;40.30;;
41705;SDS011;27385;51.096;17.190;2022-11-15T08:23:46;92.70;;;41.50;;
41705;SDS011;27385;51.096;17.190;2022-11-15T08:26:18;89.50;;;41.30;;
41705;SDS011;27385;51.096;17.190;2022-11-15T08:28:49;94.70;;;42.60;;
41705;SDS011;27385;51.096;17.190;2022-11-15T08:31:20;105.20;;;43.40;;
41705;SDS011;27385;51.096;17.190;2022-11-15T08:33:52;87.70;;;41.50;;
41705;SDS011;27385;51.096;17.190;2022-11-15T08:36:25;99.00;;;45.80;;
41705;SDS011;27385;51.096;17.190;2022-11-15T08:38:57;96.30;;;47.70;;
41705;SDS011;27385;51.096;17.190;2022-11-15T08:41:30;95.40;;;47.10;;
41705;SDS011;27385;51.096;17.190;2022-11-15T08:44:04;92.20;;;45.80;;
41705;SDS011;27385;51.096;17.190;2022-11-15T08:46:35;101.50;;;46.40;;
41705;SDS011;27385;51.096;17.190;2022-11-15T08:49:07;99.20;;;45.80;;
41705;SDS011;27385;51.096;17.190;2022-11-15T08:51:39;95.10;;;46.60;;
41705;SDS011;27385;51.096;17.190;2022-11-15T08:54:10;92.50;;;47.90;;
41705;SDS011;27385;51.096;17.190;2022-11-15T08:56:41;95.00;;;46.80;;
41705;SDS011;27385;51.096;17.190;2022-11-15T08:59:12;99.40;;;47.30;;
41705;SDS011;27385;51.096;17.190;2022-11-15T09:01:44;103.00;;;49.20;;
41705;SDS011;27385;51.096;17.190;2022-11-15T09:04:16;100.90;;;48.80;;
41705;SDS011;27385;51.096;17.190;2022-11-15T09:06:48;101.00;;;50.40;;
41705;SDS011;27385;51.096;17.190;2022-11-15T09:09:20;95.40;;;49.00;;
41705;SDS011;27385;51.096;17.190;2022-11-15T09:11:53;102.90;;;50.00;;
41705;SDS011;27385;51.096;17.190;2022-11-15T09:14:26;92.80;;;47.80;;
41705;SDS011;27385;51.096;17.190;2022-11-15T09:17:00;92.60;;;46.90;;
41705;SDS011;27385;51.096;17.190;2022-11-15T09:19:31;91.40;;;45.30;;
41705;SDS011;27385;51.096;17.190;2022-11-15T09:22:03;98.50;;;47.90;;
41705;SDS011;27385;51.096;17.190;2022-11-15T09:24:37;103.70;;;50.60;;
41705;SDS011;27385;51.096;17.190;2022-11-15T09:27:10;101.40;;;53.40;;
41705;SDS011;27385;51.096;17.190;2022-11-15T09:29:42;98.00;;;47.40;;
41705;SDS011;27385;51.096;17.190;2022-11-15T09:32:16;100.10;;;48.70;;
41705;SDS011;27385;51.096;17.190;2022-11-15T09:34:47;97.90;;;48.50;;
41705;SDS011;27385;51.096;17.190;2022-11-15T09:37:21;93.30;;;48.00;;
41705;SDS011;27385;51.096;17.190;2022-11-15T09:39:54;89.80;;;43.60;;
41705;SDS011;27385;51.096;17.190;2022-11-15T09:42:33;97.50;;;46.70;;
41705;SDS011;27385;51.096;17.190;2022-11-15T09:45:26;81.30;;;42.60;;
41705;SDS011;27385;51.096;17.190;2022-11-15T09:48:14;84.90;;;43.70;;
41705;SDS011;27385;51.096;17.190;2022-11-15T09:51:04;78.40;;;40.40;;
41705;SDS011;27385;51.096;17.190;2022-11-15T09:53:39;83.50;;;40.80;;
41705;SDS011;27385;51.096;17.190;2022-11-15T09:56:18;75.90;;;36.80;;
41705;SDS011;27385;51.096;17.190;2022-11-15T09:58:54;76.90;;;37.50;;
41705;SDS011;27385;51.096;17.190;2022-11-15T10:01:41;70.60;;;33.40;;
41705;SDS011;27385;51.096;17.190;2022-11-15T10:04:19;70.40;;;34.40;;
41705;SDS011;27385;51.096;17.190;2022-11-15T10:06:54;68.90;;;32.00;;
41705;SDS011;27385;51.096;17.190;2022-11-15T10:09:32;70.60;;;33.60;;
41705;SDS011;27385;51.096;17.190;2022-11-15T10:12:07;67.40;;;33.00;;
41705;SDS011;27385;51.096;17.190;2022-11-15T10:14:41;62.80;;;32.40;;
41705;SDS011;27385;51.096;17.190;2022-11-15T10:17:17;66.10;;;29.10;;
41705;SDS011;27385;51.096;17.190;2022-11-15T10:20:00;59.40;;;27.40;;
41705;SDS011;27385;51.096;17.190;2022-11-15T10:22:38;51.70;;;26.90;;
41705;SDS011;27385;51.096;17.190;2022-11-15T10:25:19;56.50;;;28.10;;
41705;SDS011;27385;51.096;17.190;2022-11-15T10:27:54;58.10;;;29.80;;
41705;SDS011;27385;51.096;17.190;2022-11-15T10:30:32;56.00;;;27.90;;
41705;SDS011;27385;51.096;17.190;2022-11-15T10:33:12;57.70;;;27.90;;
41705;SDS011;27385;51.096;17.190;2022-11-15T10:35:52;62.20;;;29.70;;
41705;SDS011;27385;51.096;17.190;2022-11-15T10:38:52;53.80;;;26.60;;
41705;SDS011;27385;51.096;17.190;2022-11-15T10:41:34;55.40;;;27.10;;
41705;SDS011;27385;51.096;17.190;2022-11-15T10:44:18;52.60;;;22.50;;
41705;SDS011;27385;51.096;17.190;2022-11-15T10:49:55;53.30;;;26.90;;
41705;SDS011;27385;51.096;17.190;2022-11-15T10:52:29;49.20;;;25.10;;
41705;SDS011;27385;51.096;17.190;2022-11-15T10:55:03;50.50;;;25.50;;
41705;SDS011;27385;51.096;17.190;2022-11-15T10:57:51;50.20;;;24.20;;
41705;SDS011;27385;51.096;17.190;2022-11-15T11:00:29;49.40;;;24.40;;
41705;SDS011;27385;51.096;17.190;2022-11-15T11:03:04;54.90;;;26.40;;
41705;SDS011;27385;51.096;17.190;2022-11-15T11:05:50;50.90;;;26.20;;
41705;SDS011;27385;51.096;17.190;2022-11-15T11:08:35;53.70;;;25.60;;
41705;SDS011;27385;51.096;17.190;2022-11-15T11:11:07;49.30;;;23.10;;
41705;SDS011;27385;51.096;17.190;2022-11-15T11:13:39;49.00;;;24.60;;
41705;SDS011;27385;51.096;17.190;2022-11-15T11:19:22;52.40;;;25.40;;
41705;SDS011;27385;51.096;17.190;2022-11-15T11:22:11;43.90;;;22.80;;
41705;SDS011;27385;51.096;17.190;2022-11-15T11:24:52;46.70;;;24.20;;
41705;SDS011;27385;51.096;17.190;2022-11-15T11:27:45;44.80;;;23.20;;
41705;SDS011;27385;51.096;17.190;2022-11-15T11:30:30;41.50;;;20.60;;
41705;SDS011;27385;51.096;17.190;2022-11-15T11:33:12;44.30;;;22.60;;
41705;SDS011;27385;51.096;17.190;2022-11-15T11:35:54;41.20;;;20.40;;
41705;SDS011;27385;51.096;17.190;2022-11-15T11:38:37;42.50;;;21.70;;
41705;SDS011;27385;51.096;17.190;2022-11-15T11:41:29;40.90;;;21.90;;
41705;SDS011;27385;51.096;17.190;2022-11-15T11:44:18;45.40;;;21.00;;
41705;SDS011;27385;51.096;17.190;2022-11-15T11:47:01;39.10;;;21.00;;
41705;SDS011;27385;51.096;17.190;2022-11-15T11:49:42;45.10;;;20.80;;
41705;SDS011;27385;51.096;17.190;2022-11-15T11:52:21;48.30;;;23.60;;
41705;SDS011;27385;51.096;17.190;2022-11-15T11:55:00;42.50;;;21.00;;
41705;SDS011;27385;51.096;17.190;2022-11-15T11:57:41;37.90;;;18.70;;
41705;SDS011;27385;51.096;17.190;2022-11-15T12:00:19;42.50;;;19.30;;
41705;SDS011;27385;51.096;17.190;2022-11-15T12:03:00;38.50;;;16.90;;
41705;SDS011;27385;51.096;17.190;2022-11-15T12:05:39;37.30;;;17.50;;
41705;SDS011;27385;51.096;17.190;2022-11-15T12:08:20;37.20;;;17.90;;
41705;SDS011;27385;51.096;17.190;2022-11-15T12:11:00;38.00;;;16.70;;
41705;SDS011;27385;51.096;17.190;2022-11-15T12:13:38;33.80;;;16.60;;
41705;SDS011;27385;51.096;17.190;2022-11-15T12:16:13;35.80;;;17.00;;
41705;SDS011;27385;51.096;17.190;2022-11-15T12:18:50;35.90;;;15.90;;
41705;SDS011;27385;51.096;17.190;2022-11-15T12:21:24;34.90;;;15.10;;
41705;SDS011;27385;51.096;17.190;2022-11-15T12:24:04;33.40;;;15.60;;
41705;SDS011;27385;51.096;17.190;2022-11-15T12:26:42;32.00;;;13.40;;
41705;SDS011;27385;51.096;17.190;2022-11-15T12:29:20;28.70;;;12.00;;
41705;SDS011;27385;51.096;17.190;2022-11-15T12:31:57;32.80;;;11.60;;
41705;SDS011;27385;51.096;17.190;2022-11-15T12:34:36;26.60;;;11.80;;
41705;SDS011;27385;51.096;17.190;2022-11-15T12:40:28;32.20;;;12.60;;
41705;SDS011;27385;51.096;17.190;2022-11-15T12:43:04;27.30;;;12.30;;
41705;SDS011;27385;51.096;17.190;2022-11-15T12:45:48;27.70;;;11.80;;
41705;SDS011;27385;51.096;17.190;2022-11-15T13:03:19;27.20;;;11.90;;
41705;SDS011;27385;51.096;17.190;2022-11-15T13:12:09;29.10;;;12.40;;
41705;SDS011;27385;51.096;17.190;2022-11-15T13:15:08;25.50;;;12.90;;
41705;SDS011;27385;51.096;17.190;2022-11-15T13:18:30;28.20;;;12.60;;
41705;SDS011;27385;51.096;17.190;2022-11-15T13:21:04;27.30;;;12.70;;
41705;SDS011;27385;51.096;17.190;2022-11-15T13:24:15;25.60;;;11.90;;
41705;SDS011;27385;51.096;17.190;2022-11-15T13:26:48;29.60;;;14.60;;
41705;SDS011;27385;51.096;17.190;2022-11-15T13:29:21;30.70;;;13.90;;
41705;SDS011;27385;51.096;17.190;2022-11-15T13:31:53;30.80;;;13.80;;
41705;SDS011;27385;51.096;17.190;2022-11-15T13:34:26;31.80;;;16.40;;
41705;SDS011;27385;51.096;17.190;2022-11-15T13:37:01;34.50;;;16.70;;
41705;SDS011;27385;51.096;17.190;2022-11-15T13:39:42;35.80;;;16.00;;
41705;SDS011;27385;51.096;17.190;2022-11-15T13:42:15;31.60;;;15.80;;
41705;SDS011;27385;51.096;17.190;2022-11-15T13:44:55;34.10;;;15.90;;
41705;SDS011;27385;51.096;17.190;2022-11-15T13:47:29;41.80;;;19.70;;
41705;SDS011;27385;51.096;17.190;2022-11-15T13:50:01;34.80;;;17.80;;
41705;SDS011;27385;51.096;17.190;2022-11-15T13:52:35;37.40;;;17.10;;
41705;SDS011;27385;51.096;17.190;2022-11-15T13:55:12;40.60;;;19.60;;
41705;SDS011;27385;51.096;17.190;2022-11-15T13:57:48;38.70;;;18.30;;
41705;SDS011;27385;51.096;17.190;2022-11-15T14:03:15;32.10;;;16.40;;
41705;SDS011;27385;51.096;17.190;2022-11-15T14:06:01;39.20;;;20.00;;
41705;SDS011;27385;51.096;17.190;2022-11-15T14:08:35;48.00;;;25.20;;
41705;SDS011;27385;51.096;17.190;2022-11-15T14:11:08;49.30;;;25.30;;
41705;SDS011;27385;51.096;17.190;2022-11-15T14:14:02;77.70;;;43.60;;
41705;SDS011;27385;51.096;17.190;2022-11-15T14:16:42;55.80;;;25.70;;
41705;SDS011;27385;51.096;17.190;2022-11-15T14:22:16;41.30;;;19.40;;
41705;SDS011;27385;51.096;17.190;2022-11-15T14:30:42;37.60;;;17.50;;
41705;SDS011;27385;51.096;17.190;2022-11-15T14:33:22;40.00;;;18.70;;
41705;SDS011;27385;51.096;17.190;2022-11-15T14:36:01;44.70;;;22.40;;
41705;SDS011;27385;51.096;17.190;2022-11-15T14:38:35;36.90;;;19.40;;
41705;SDS011;27385;51.096;17.190;2022-11-15T14:41:08;40.70;;;21.20;;
41705;SDS011;27385;51.096;17.190;2022-11-15T14:43:46;39.80;;;20.00;;
41705;SDS011;27385;51.096;17.190;2022-11-15T14:46:19;59.00;;;23.60;;
41705;SDS011;27385;51.096;17.190;2022-11-15T14:48:52;52.30;;;25.70;;
41705;SDS011;27385;51.096;17.190;2022-11-15T14:51:24;54.40;;;25.40;;
41705;SDS011;27385;51.096;17.190;2022-11-15T14:53:56;48.90;;;23.80;;
41705;SDS011;27385;51.096;17.190;2022-11-15T14:56:28;46.80;;;21.80;;
41705;SDS011;27385;51.096;17.190;2022-11-15T14:59:00;39.40;;;19.50;;
41705;SDS011;27385;51.096;17.190;2022-11-15T15:01:31;44.00;;;19.30;;
41705;SDS011;27385;51.096;17.190;2022-11-15T15:04:03;49.80;;;25.30;;
41705;SDS011;27385;51.096;17.190;2022-11-15T15:06:35;57.00;;;30.40;;
41705;SDS011;27385;51.096;17.190;2022-11-15T15:09:07;83.60;;;45.20;;
41705;SDS011;27385;51.096;17.190;2022-11-15T15:11:38;104.10;;;56.70;;
41705;SDS011;27385;51.096;17.190;2022-11-15T15:14:10;104.60;;;55.30;;
41705;SDS011;27385;51.096;17.190;2022-11-15T15:16:43;89.90;;;50.60;;
41705;SDS011;27385;51.096;17.190;2022-11-15T15:19:15;90.00;;;45.10;;
41705;SDS011;27385;51.096;17.190;2022-11-15T15:21:47;82.00;;;43.40;;
41705;SDS011;27385;51.096;17.190;2022-11-15T15:24:18;81.10;;;40.10;;
41705;SDS011;27385;51.096;17.190;2022-11-15T15:26:52;71.50;;;38.00;;
41705;SDS011;27385;51.096;17.190;2022-11-15T15:29:23;84.10;;;40.80;;
41705;SDS011;27385;51.096;17.190;2022-11-15T15:31:55;84.70;;;43.40;;
41705;SDS011;27385;51.096;17.190;2022-11-15T15:34:27;160.30;;;80.40;;
41705;SDS011;27385;51.096;17.190;2022-11-15T15:37:09;172.20;;;86.10;;
41705;SDS011;27385;51.096;17.190;2022-11-15T15:39:55;170.30;;;76.80;;
41705;SDS011;27385;51.096;17.190;2022-11-15T15:42:27;139.90;;;69.80;;
41705;SDS011;27385;51.096;17.190;2022-11-15T15:44:59;155.00;;;79.20;;
41705;SDS011;27385;51.096;17.190;2022-11-15T15:47:32;163.70;;;76.50;;
41705;SDS011;27385;51.096;17.190;2022-11-15T15:50:04;165.30;;;78.80;;
41705;SDS011;27385;51.096;17.190;2022-11-15T15:52:41;167.40;;;77.70;;